createdAt,value
2019-02-02T00:00:43.378Z,17.20
2019-02-02T00:03:46.833Z,17.27
2019-02-02T00:06:50.273Z,17.33
2019-02-02T00:09:53.700Z,17.13
2019-02-02T00:12:57.140Z,16.50
2019-02-02T00:16:00.580Z,16.50
2019-02-02T00:19:04.532Z,16.07
2019-02-02T00:22:07.969Z,15.97
2019-02-02T00:25:11.533Z,16.73
2019-02-02T00:28:14.995Z,18.87
2019-02-02T00:31:18.428Z,15.23
2019-02-02T00:34:21.889Z,19.67
2019-02-02T00:37:25.348Z,17.63
2019-02-02T00:40:28.777Z,16.90
2019-02-02T00:43:32.213Z,17.43
2019-02-02T00:46:35.629Z,18.30
2019-02-02T00:49:39.074Z,17.33
2019-02-02T00:52:42.561Z,16.73
2019-02-02T00:55:46.003Z,16.67
2019-02-02T00:58:49.436Z,17.33
2019-02-02T01:01:52.888Z,17.70
2019-02-02T01:04:56.343Z,15.67
2019-02-02T01:07:59.808Z,16.97
2019-02-02T01:11:05.069Z,15.03
2019-02-02T01:14:08.629Z,14.83
2019-02-02T01:17:12.076Z,15.63
2019-02-02T01:20:15.948Z,15.33
2019-02-02T01:23:19.397Z,15.90
2019-02-02T01:26:22.835Z,15.63
2019-02-02T01:29:26.265Z,16.57
2019-02-02T01:32:29.689Z,14.63
2019-02-02T01:35:33.133Z,15.03
2019-02-02T01:38:36.572Z,15.67
2019-02-02T01:41:39.997Z,15.57
2019-02-02T01:44:43.441Z,14.27
2019-02-02T01:47:46.858Z,15.13
2019-02-02T01:50:50.322Z,15.73
2019-02-02T01:53:53.732Z,14.27
2019-02-02T01:56:57.168Z,14.23
2019-02-02T02:00:00.606Z,14.30
2019-02-02T02:03:04.130Z,15.53
2019-02-02T02:06:07.600Z,15.20
2019-02-02T02:09:11.309Z,16.30
2019-02-02T02:12:14.724Z,15.07
2019-02-02T02:15:19.500Z,15.70
2019-02-02T02:18:22.944Z,16.23
2019-02-02T02:21:26.375Z,16.97
2019-02-02T02:24:29.799Z,17.17
2019-02-02T02:27:33.216Z,17.03
2019-02-02T02:30:36.652Z,17.17
2019-02-02T02:33:40.077Z,17.27
2019-02-02T02:36:43.507Z,17.27
2019-02-02T02:39:46.949Z,18.07
2019-02-02T02:42:50.905Z,19.00
2019-02-02T02:45:54.344Z,19.07
2019-02-02T02:48:57.769Z,19.73
2019-02-02T02:52:01.205Z,19.30
2019-02-02T02:55:07.780Z,20.87
2019-02-02T02:58:11.239Z,20.60
2019-02-02T03:01:14.667Z,19.83
2019-02-02T03:04:18.109Z,19.00
2019-02-02T03:07:21.552Z,20.57
2019-02-02T03:10:27.729Z,21.40
2019-02-02T03:13:31.168Z,20.67
2019-02-02T03:16:34.590Z,21.07
2019-02-02T03:19:38.136Z,20.60
2019-02-02T03:22:41.606Z,21.33
2019-02-02T03:25:45.044Z,21.67
2019-02-02T03:28:53.606Z,20.10
2019-02-02T03:31:53.613Z,22.10
2019-02-02T03:34:57.211Z,20.60
2019-02-02T03:38:00.712Z,21.23
2019-02-02T03:41:04.161Z,20.73
2019-02-02T03:44:07.569Z,19.97
2019-02-02T03:47:11.005Z,20.07
2019-02-02T03:50:14.712Z,20.30
2019-02-02T03:53:18.153Z,19.77
2019-02-02T03:56:21.568Z,20.27
2019-02-02T03:59:25.009Z,20.27
2019-02-02T04:02:28.441Z,20.47
2019-02-02T04:05:32.148Z,20.30
2019-02-02T04:08:35.580Z,20.50
2019-02-02T04:11:38.994Z,20.33
2019-02-02T04:14:42.435Z,20.57
2019-02-02T04:17:45.868Z,21.03
2019-02-02T04:20:49.316Z,21.33
2019-02-02T04:23:52.738Z,21.03
2019-02-02T04:26:56.173Z,21.10
2019-02-02T04:29:59.592Z,20.20
2019-02-02T04:33:03.036Z,22.03
2019-02-02T04:36:06.457Z,20.30
2019-02-02T04:39:09.897Z,21.67
2019-02-02T04:42:13.313Z,21.10
2019-02-02T04:45:17.792Z,23.30
2019-02-02T04:48:21.210Z,23.00
2019-02-02T04:51:24.645Z,24.97
2019-02-02T04:54:28.069Z,24.87
2019-02-02T04:57:31.508Z,24.83
2019-02-02T05:00:34.912Z,26.60
2019-02-02T05:03:38.354Z,26.60
2019-02-02T05:06:41.792Z,26.03
2019-02-02T05:09:45.228Z,26.77
2019-02-02T05:12:49.011Z,23.80
2019-02-02T05:15:52.560Z,24.07
2019-02-02T05:18:56.041Z,29.67
2019-02-02T05:21:59.492Z,27.77
2019-02-02T05:25:02.927Z,24.60
2019-02-02T05:28:06.374Z,23.67
2019-02-02T05:31:09.792Z,22.90
2019-02-02T05:34:13.230Z,23.53
2019-02-02T05:37:16.643Z,23.63
2019-02-02T05:40:22.289Z,24.20
2019-02-02T05:43:25.733Z,22.13
2019-02-02T05:46:29.168Z,23.57
2019-02-02T05:49:32.581Z,22.90
2019-02-02T05:52:36.033Z,22.87
2019-02-02T05:55:39.453Z,23.20
2019-02-02T05:58:42.897Z,22.23
2019-02-02T06:01:46.332Z,20.93
2019-02-02T06:04:49.765Z,22.10
2019-02-02T06:07:53.193Z,22.60
2019-02-02T06:10:56.644Z,22.47
2019-02-02T06:14:00.077Z,22.13
2019-02-02T06:17:03.513Z,22.83
2019-02-02T06:20:10.156Z,23.80
2019-02-02T06:23:13.604Z,21.97
2019-02-02T06:26:17.033Z,23.90
2019-02-02T06:29:20.474Z,23.53
2019-02-02T06:32:23.894Z,24.30
2019-02-02T06:35:27.336Z,23.13
2019-02-02T06:38:30.748Z,22.50
2019-02-02T06:41:34.183Z,23.97
2019-02-02T06:44:37.635Z,24.80
2019-02-02T06:47:41.059Z,27.37
2019-02-02T06:50:44.499Z,27.23
2019-02-02T06:53:47.913Z,27.07
2019-02-02T06:56:51.359Z,24.27
2019-02-02T06:59:54.802Z,26.27
2019-02-02T07:02:58.257Z,24.27
2019-02-02T07:06:01.697Z,26.50
2019-02-02T23:06:55.986Z,52.20
2019-02-02T23:10:05.233Z,50.97
2019-02-02T23:13:26.855Z,55.60
2019-02-02T23:16:30.283Z,53.33
2019-02-02T23:19:33.749Z,53.83
2019-02-02T23:22:37.173Z,53.93
2019-02-02T23:25:40.601Z,54.43
2019-02-02T23:28:44.028Z,54.47
2019-02-02T23:31:47.468Z,55.53
2019-02-02T23:34:50.921Z,55.83
2019-02-02T23:37:54.507Z,56.57
2019-02-02T23:40:57.960Z,54.87
2019-02-02T23:44:01.389Z,54.77
2019-02-02T23:47:04.871Z,55.40
2019-02-02T23:50:10.143Z,57.97
2019-02-02T23:53:13.643Z,56.37
2019-02-02T23:56:17.061Z,56.83
2019-02-02T23:59:20.789Z,56.73
